Time;durP1;ratioP1;P1;durP2;ratioP2;P2;SDS_P1;SDS_P2;PMS_P1;PMS_P2;Temp;Humidity;BMP_temperature;BMP_pressure;BME280_temperature;BME280_humidity;BME280_pressure;Samples;Min_cycle;Max_cycle;Signal;HPM_P1;HPM_P2
2022/10/21 00:01:34;;;;;;;1.60;1.60;;;20.20;74.20;;;;;;5010998;28;43557;-71
2022/10/21 00:04:02;;;;;;;1.60;1.60;;;20.20;74.40;;;;;;5012933;28;43426;-71
2022/10/21 00:06:31;;;;;;;1.40;1.40;;;20.10;74.50;;;;;;5010564;28;43453;-71
2022/10/21 00:08:59;;;;;;;1.60;1.60;;;20.20;74.50;;;;;;5017416;28;43778;-72
2022/10/21 00:11:27;;;;;;;1.57;1.57;;;20.10;74.30;;;;;;5015251;28;43404;-70
2022/10/21 00:13:55;;;;;;;1.93;1.90;;;20.10;74.50;;;;;;5010985;28;43386;-72
2022/10/21 00:16:23;;;;;;;1.60;1.60;;;20.00;74.60;;;;;;5014104;28;43456;-71
2022/10/21 00:18:51;;;;;;;1.80;1.80;;;20.00;75.00;;;;;;5011855;28;43968;-73
2022/10/21 00:21:20;;;;;;;1.40;1.40;;;20.00;75.10;;;;;;5015493;28;44763;-72
2022/10/21 00:23:49;;;;;;;1.60;1.60;;;20.00;75.00;;;;;;5016551;28;43518;-71
2022/10/21 00:26:17;;;;;;;1.50;1.50;;;20.00;74.90;;;;;;5012226;28;43834;-72
2022/10/21 00:28:45;;;;;;;1.60;1.60;;;20.00;75.00;;;;;;5011246;28;43741;-72
2022/10/21 00:31:14;;;;;;;1.50;1.50;;;19.90;75.30;;;;;;5009627;28;43469;-71
2022/10/21 00:33:42;;;;;;;1.50;1.50;;;19.90;75.20;;;;;;5013619;28;43515;-71
2022/10/21 00:36:13;;;;;;;1.70;1.70;;;20.00;74.90;;;;;;5010401;28;43453;-72
2022/10/21 00:38:42;;;;;;;1.40;1.40;;;20.20;74.50;;;;;;5012134;28;43610;-71
2022/10/21 00:41:11;;;;;;;1.60;1.60;;;20.40;74.00;;;;;;5009392;28;43436;-70
2022/10/21 00:43:59;;;;;;;1.50;1.50;;;20.40;73.60;;;;;;5016200;28;43587;-72
2022/10/21 00:46:35;;;;;;;1.40;1.40;;;20.40;73.50;;;;;;5014551;28;43443;-72
2022/10/21 00:49:06;;;;;;;1.53;1.53;;;20.30;73.60;;;;;;5008646;28;43949;-72
2022/10/21 00:51:34;;;;;;;1.50;1.50;;;20.20;73.80;;;;;;5015086;28;43973;-72
2022/10/21 00:54:02;;;;;;;1.60;1.50;;;20.20;74.40;;;;;;5013277;28;43423;-71
2022/10/21 00:56:31;;;;;;;1.40;1.40;;;20.10;74.50;;;;;;5015252;28;43455;-71
2022/10/21 00:59:00;;;;;;;1.60;1.60;;;20.10;74.40;;;;;;5012250;28;43984;-72
2022/10/21 01:01:28;;;;;;;1.40;1.40;;;20.10;74.50;;;;;;5011477;28;44938;-71
2022/10/21 01:03:56;;;;;;;1.50;1.50;;;20.00;74.50;;;;;;5012544;28;43911;-72
2022/10/21 01:06:24;;;;;;;1.50;1.50;;;20.00;74.80;;;;;;5011610;28;43441;-72
2022/10/21 01:08:53;;;;;;;1.50;1.50;;;20.00;75.10;;;;;;5010833;28;45568;-71
2022/10/21 01:11:21;;;;;;;1.20;1.20;;;20.10;75.00;;;;;;5012962;28;43362;-74
2022/10/21 01:13:58;;;;;;;1.40;1.40;;;20.10;74.50;;;;;;5014203;28;44132;-72
2022/10/21 01:16:29;;;;;;;1.30;1.30;;;20.20;74.30;;;;;;5014103;28;43471;-71
2022/10/21 01:18:59;;;;;;;1.33;1.33;;;20.20;74.20;;;;;;5018014;28;43970;-72
2022/10/21 01:21:31;;;;;;;1.40;1.40;;;20.10;74.40;;;;;;5007957;28;43429;-72
2022/10/21 01:24:23;;;;;;;1.40;1.40;;;20.20;74.50;;;;;;5013968;28;43397;-71
2022/10/21 01:27:14;;;;;;;1.30;1.30;;;20.10;74.30;;;;;;5007300;28;43957;-74
2022/10/21 01:30:13;;;;;;;1.20;1.20;;;20.10;74.40;;;;;;5012149;28;43624;-72
2022/10/21 01:32:48;;;;;;;1.40;1.40;;;20.00;74.70;;;;;;4985758;28;43963;-72
2022/10/21 01:35:19;;;;;;;1.30;1.30;;;20.00;75.00;;;;;;5010634;28;43453;-72
2022/10/21 01:37:52;;;;;;;1.23;1.23;;;20.00;74.80;;;;;;5013917;28;43479;-71
2022/10/21 01:40:21;;;;;;;1.30;1.30;;;20.00;74.80;;;;;;5015189;28;43615;-71
2022/10/21 01:42:51;;;;;;;1.37;1.37;;;20.00;74.90;;;;;;5010570;28;43434;-72
2022/10/21 01:45:21;;;;;;;1.20;1.20;;;19.90;74.90;;;;;;5012712;28;43472;-71
2022/10/21 01:47:51;;;;;;;1.50;1.50;;;19.90;75.30;;;;;;5018927;28;43507;-71
2022/10/21 01:50:20;;;;;;;1.37;1.37;;;20.00;75.20;;;;;;5009443;28;43751;-72
2022/10/21 01:52:50;;;;;;;1.20;1.20;;;20.10;74.70;;;;;;5017101;28;43440;-71
2022/10/21 01:55:20;;;;;;;1.30;1.30;;;20.30;74.20;;;;;;5011324;28;43435;-71
2022/10/21 01:57:51;;;;;;;1.30;1.30;;;20.40;73.60;;;;;;5016724;28;43472;-70
2022/10/21 02:00:19;;;;;;;1.20;1.20;;;20.40;73.40;;;;;;5006440;28;45703;-73
2022/10/21 02:02:48;;;;;;;1.20;1.20;;;20.40;73.50;;;;;;5021148;28;43419;-72
2022/10/21 02:05:18;;;;;;;1.30;1.30;;;20.30;73.70;;;;;;5012804;28;43436;-70
2022/10/21 02:07:46;;;;;;;1.50;1.50;;;20.20;73.90;;;;;;5011082;28;43422;-71
2022/10/21 02:10:14;;;;;;;1.50;1.50;;;20.10;74.30;;;;;;5007171;28;43945;-71
2022/10/21 02:12:43;;;;;;;1.40;1.40;;;20.10;74.40;;;;;;5010469;28;43475;-71
2022/10/21 02:15:13;;;;;;;1.50;1.50;;;20.10;74.40;;;;;;5019615;28;44067;-71
2022/10/21 02:17:42;;;;;;;1.20;1.20;;;20.10;74.50;;;;;;5019336;28;43398;-71
2022/10/21 02:20:10;;;;;;;1.20;1.20;;;20.00;74.60;;;;;;5020132;28;43840;-73
2022/10/21 02:22:39;;;;;;;1.20;1.20;;;20.00;75.10;;;;;;5016905;28;43539;-71
2022/10/21 02:25:09;;;;;;;1.30;1.30;;;20.00;75.10;;;;;;5007601;28;43457;-71
2022/10/21 02:27:37;;;;;;;1.40;1.40;;;20.00;74.60;;;;;;5016007;28;43531;-72
2022/10/21 02:30:06;;;;;;;1.10;1.10;;;20.20;74.30;;;;;;5018858;28;43856;-71
2022/10/21 02:32:35;;;;;;;1.30;1.30;;;20.20;74.10;;;;;;5016489;28;43527;-71
2022/10/21 02:35:15;;;;;;;1.40;1.40;;;20.20;74.10;;;;;;5019031;28;43407;-71
2022/10/21 02:37:47;;;;;;;1.30;1.30;;;20.20;74.40;;;;;;5011566;28;43627;-72
2022/10/21 02:40:17;;;;;;;1.80;1.40;;;20.20;74.30;;;;;;5019751;28;45896;-70
2022/10/21 02:42:47;;;;;;;1.30;1.30;;;20.10;74.20;;;;;;5012384;28;44688;-72
2022/10/21 02:45:16;;;;;;;1.33;1.33;;;20.10;74.30;;;;;;5024894;28;43454;-72
2022/10/21 02:47:47;;;;;;;1.10;1.10;;;20.00;74.50;;;;;;5014200;28;43567;-72
2022/10/21 02:50:14;;;;;;;1.20;1.20;;;20.00;75.00;;;;;;5009373;28;43861;-72
2022/10/21 02:52:42;;;;;;;1.00;1.00;;;20.00;74.80;;;;;;5010338;28;43371;-70
2022/10/21 02:55:12;;;;;;;1.30;1.30;;;20.00;74.70;;;;;;5013185;28;43453;-70
2022/10/21 02:57:39;;;;;;;1.50;1.50;;;20.00;74.80;;;;;;5012292;28;43443;-70
2022/10/21 03:00:09;;;;;;;1.40;1.40;;;19.90;74.80;;;;;;5020925;28;45662;-71
2022/10/21 03:02:37;;;;;;;1.33;1.33;;;19.90;75.30;;;;;;5009250;28;44028;-72
2022/10/21 03:05:06;;;;;;;1.20;1.20;;;20.00;75.20;;;;;;5010784;28;43485;-71
2022/10/21 03:07:34;;;;;;;1.13;1.13;;;20.10;74.80;;;;;;5014675;28;43434;-70
2022/10/21 03:10:01;;;;;;;1.50;1.50;;;20.20;74.40;;;;;;5014027;28;43931;-72
2022/10/21 03:12:31;;;;;;;1.30;1.30;;;20.20;74.10;;;;;;5018273;28;43375;-71
2022/10/21 03:14:59;;;;;;;1.20;1.20;;;20.20;74.10;;;;;;5010331;28;44032;-70
2022/10/21 03:17:29;;;;;;;1.17;1.17;;;20.20;74.40;;;;;;5015302;28;43424;-72
2022/10/21 03:19:57;;;;;;;1.30;1.30;;;20.20;74.40;;;;;;5012718;28;43909;-72
2022/10/21 03:22:25;;;;;;;1.20;1.20;;;20.20;74.30;;;;;;5011227;28;43449;-71
2022/10/21 03:24:54;;;;;;;1.10;1.10;;;20.10;74.30;;;;;;5010328;28;43382;-70
2022/10/21 03:27:22;;;;;;;1.40;1.40;;;20.00;74.40;;;;;;5014546;28;43497;-71
2022/10/21 03:29:51;;;;;;;1.20;1.20;;;20.00;74.90;;;;;;5014917;28;43878;-71
2022/10/21 03:32:19;;;;;;;1.30;1.30;;;20.00;75.00;;;;;;5014933;28;43490;-72
2022/10/21 03:34:47;;;;;;;1.10;1.10;;;20.00;74.90;;;;;;5016899;28;43417;-72
2022/10/21 03:37:15;;;;;;;1.10;1.10;;;19.90;74.80;;;;;;5009593;28;43389;-71
2022/10/21 03:39:43;;;;;;;1.10;1.10;;;19.90;74.80;;;;;;5008113;28;43856;-71
2022/10/21 03:42:11;;;;;;;1.30;1.30;;;19.90;75.30;;;;;;5019421;28;43400;-73
2022/10/21 03:44:39;;;;;;;1.30;1.30;;;19.90;75.30;;;;;;5012314;28;43391;-71
2022/10/21 03:47:08;;;;;;;1.10;1.10;;;19.90;75.10;;;;;;5020518;28;43412;-71
2022/10/21 03:49:36;;;;;;;1.03;1.03;;;19.90;75.00;;;;;;5011785;28;43949;-69
2022/10/21 03:52:05;;;;;;;1.20;1.20;;;19.90;75.10;;;;;;5019900;28;43998;-71
2022/10/21 03:54:33;;;;;;;1.00;1.00;;;19.80;75.20;;;;;;5014252;28;43984;-72
2022/10/21 03:57:01;;;;;;;1.10;1.10;;;19.90;75.50;;;;;;5012243;28;43535;-72
2022/10/21 03:59:29;;;;;;;1.10;1.10;;;20.00;75.30;;;;;;5009401;28;44786;-71
2022/10/21 04:01:59;;;;;;;0.83;0.83;;;20.10;74.70;;;;;;5022025;28;43467;-73
2022/10/21 04:04:29;;;;;;;1.20;1.20;;;20.30;74.20;;;;;;5015826;28;43450;-71
2022/10/21 04:06:57;;;;;;;1.00;1.00;;;20.40;73.70;;;;;;5013190;28;43552;-71
2022/10/21 04:09:25;;;;;;;0.97;0.97;;;20.40;73.60;;;;;;5017478;28;44320;-71
2022/10/21 04:11:53;;;;;;;1.00;1.00;;;20.40;73.60;;;;;;5008117;28;43440;-71
2022/10/21 04:14:20;;;;;;;1.20;1.20;;;20.30;73.70;;;;;;5014563;28;43908;-74
2022/10/21 04:16:48;;;;;;;1.20;1.20;;;20.20;73.90;;;;;;5013757;28;43533;-71
2022/10/21 04:19:30;;;;;;;1.20;1.20;;;20.10;74.40;;;;;;5015739;28;43603;-72
2022/10/21 04:21:58;;;;;;;1.17;1.17;;;20.10;74.40;;;;;;5013812;28;44640;-71
2022/10/21 04:24:26;;;;;;;1.10;1.10;;;20.10;74.40;;;;;;5024098;28;43402;-71
2022/10/21 04:26:53;;;;;;;1.10;1.10;;;20.00;74.40;;;;;;5016199;28;43411;-71
2022/10/21 04:29:22;;;;;;;1.20;1.20;;;20.00;74.80;;;;;;5021228;28;46271;-71
2022/10/21 04:31:49;;;;;;;1.00;1.00;;;20.00;75.10;;;;;;5016326;28;44109;-71
2022/10/21 04:34:17;;;;;;;1.00;1.00;;;20.00;74.80;;;;;;5011964;28;43405;-71
2022/10/21 04:36:47;;;;;;;1.10;1.10;;;20.20;74.50;;;;;;5017671;28;43554;-71
2022/10/21 04:39:17;;;;;;;1.00;1.00;;;20.20;74.20;;;;;;5015514;28;43864;-72
2022/10/21 04:41:46;;;;;;;1.10;1.10;;;20.20;74.00;;;;;;5013406;28;45054;-72
2022/10/21 04:44:14;;;;;;;1.20;1.20;;;20.20;74.50;;;;;;5017307;28;43400;-71
2022/10/21 04:46:42;;;;;;;0.90;0.90;;;20.20;74.50;;;;;;5016020;28;43982;-71
2022/10/21 04:49:10;;;;;;;1.10;1.10;;;20.10;74.30;;;;;;5011074;28;44519;-72
2022/10/21 04:51:38;;;;;;;1.10;1.10;;;20.10;74.30;;;;;;5020490;28;44034;-71
2022/10/21 04:54:07;;;;;;;1.30;1.30;;;20.10;74.40;;;;;;5013643;28;43398;-71
2022/10/21 04:56:35;;;;;;;1.10;1.10;;;20.00;74.70;;;;;;5012402;28;43946;-71
2022/10/21 04:59:03;;;;;;;1.00;1.00;;;20.00;75.00;;;;;;5010682;28;44078;-70
2022/10/21 05:01:31;;;;;;;0.93;0.93;;;20.00;74.90;;;;;;5010651;28;43553;-71
2022/10/21 05:03:59;;;;;;;1.00;1.00;;;20.00;74.80;;;;;;5014570;28;43419;-71
2022/10/21 05:06:26;;;;;;;1.13;1.13;;;20.00;74.90;;;;;;5020101;28;43443;-72
2022/10/21 05:08:54;;;;;;;0.97;0.97;;;19.90;75.00;;;;;;5010502;28;43772;-71
2022/10/21 05:11:24;;;;;;;1.10;1.00;;;19.90;75.30;;;;;;5007931;28;43417;-71
2022/10/21 05:13:51;;;;;;;1.10;1.10;;;19.90;75.10;;;;;;5016017;28;43451;-71
2022/10/21 05:16:19;;;;;;;1.00;1.00;;;19.90;74.90;;;;;;5013741;28;43444;-71
2022/10/21 05:18:47;;;;;;;1.00;1.00;;;19.90;75.00;;;;;;5012638;28;43595;-71
2022/10/21 05:21:15;;;;;;;1.10;1.10;;;19.90;75.10;;;;;;5012079;28;43507;-71
2022/10/21 05:23:43;;;;;;;1.00;1.00;;;19.90;75.50;;;;;;5014938;28;43398;-71
2022/10/21 05:26:11;;;;;;;0.77;0.77;;;19.90;75.40;;;;;;5014074;28;43462;-71
2022/10/21 05:28:40;;;;;;;0.90;0.90;;;20.00;75.00;;;;;;5012800;28;43615;-70
2022/10/21 05:31:08;;;;;;;0.90;0.90;;;20.20;74.50;;;;;;5008243;28;43502;-72
2022/10/21 05:33:36;;;;;;;1.07;1.07;;;20.40;73.90;;;;;;5018406;28;43546;-71
2022/10/21 05:36:06;;;;;;;1.00;1.00;;;20.40;73.60;;;;;;5014831;28;43523;-71
2022/10/21 05:38:34;;;;;;;1.00;1.00;;;20.40;73.50;;;;;;5024345;28;44049;-72
2022/10/21 05:41:02;;;;;;;0.90;0.90;;;20.30;73.50;;;;;;5008409;28;45382;-71
2022/10/21 05:43:30;;;;;;;1.00;1.00;;;20.20;73.70;;;;;;5014082;28;43485;-71
2022/10/21 05:45:59;;;;;;;1.00;1.00;;;20.20;74.40;;;;;;5022191;28;43564;-72
2022/10/21 05:48:27;;;;;;;1.07;1.07;;;20.10;74.40;;;;;;5016928;28;44396;-71
2022/10/21 05:50:55;;;;;;;0.93;0.93;;;20.10;74.40;;;;;;5009807;28;43377;-71
2022/10/21 05:53:23;;;;;;;0.90;0.90;;;20.10;74.40;;;;;;5015120;28;43422;-71
2022/10/21 05:55:55;;;;;;;1.20;1.10;;;20.00;74.50;;;;;;5021502;28;43389;-73
2022/10/21 05:58:23;;;;;;;1.17;1.17;;;20.00;74.80;;;;;;5013175;28;43896;-71
2022/10/21 06:00:53;;;;;;;0.93;0.93;;;20.00;75.30;;;;;;5019156;28;43395;-72
2022/10/21 06:03:23;;;;;;;1.00;1.00;;;20.00;75.10;;;;;;5009672;28;43714;-71
2022/10/21 06:05:51;;;;;;;0.90;0.90;;;19.90;74.80;;;;;;5015013;28;43440;-73
2022/10/21 06:08:19;;;;;;;1.20;1.20;;;19.90;74.90;;;;;;5015551;28;43837;-72
2022/10/21 06:10:47;;;;;;;1.00;1.00;;;19.90;75.10;;;;;;5015647;28;44621;-71
2022/10/21 06:13:14;;;;;;;0.90;0.90;;;19.90;75.50;;;;;;5014099;28;43473;-71
2022/10/21 06:15:42;;;;;;;0.90;0.90;;;20.00;75.30;;;;;;5022755;28;43436;-71
2022/10/21 06:18:17;;;;;;;1.00;1.00;;;20.10;74.90;;;;;;5012237;28;45489;-71
2022/10/21 06:20:47;;;;;;;1.00;1.00;;;20.30;74.30;;;;;;5018830;28;44028;-72
2022/10/21 06:23:15;;;;;;;0.90;0.90;;;20.40;73.80;;;;;;5012762;28;43435;-71
2022/10/21 06:25:43;;;;;;;1.00;1.00;;;20.40;73.70;;;;;;5013530;28;43478;-72
2022/10/21 06:28:11;;;;;;;1.10;1.10;;;20.40;73.60;;;;;;5014606;28;43857;-72
2022/10/21 06:30:39;;;;;;;1.00;1.00;;;20.30;73.80;;;;;;5012263;28;44051;-71
2022/10/21 06:33:06;;;;;;;0.90;0.90;;;20.20;74.00;;;;;;5014225;28;43429;-71
2022/10/21 06:35:34;;;;;;;0.90;0.90;;;20.10;74.40;;;;;;5021962;28;43686;-71
2022/10/21 06:38:04;;;;;;;1.10;1.10;;;20.10;74.50;;;;;;5011760;28;43594;-71
2022/10/21 06:40:31;;;;;;;1.03;1.03;;;20.10;74.40;;;;;;5009715;28;43500;-71
2022/10/21 06:42:59;;;;;;;1.00;1.00;;;20.00;74.50;;;;;;5014279;28;43455;-71
2022/10/21 06:45:27;;;;;;;1.10;1.10;;;20.00;74.70;;;;;;5018372;28;43493;-71
2022/10/21 06:47:55;;;;;;;1.10;1.10;;;20.00;75.20;;;;;;5019584;28;43931;-71
2022/10/21 06:50:23;;;;;;;0.97;0.97;;;20.00;75.20;;;;;;5013007;28;44297;-71
2022/10/21 06:52:51;;;;;;;1.00;1.00;;;20.00;75.00;;;;;;5014602;28;43331;-72
2022/10/21 06:55:20;;;;;;;0.90;0.90;;;19.90;74.80;;;;;;5022668;28;43383;-71
2022/10/21 06:57:48;;;;;;;0.90;0.90;;;19.90;75.00;;;;;;5018346;28;43599;-71
2022/10/21 07:00:16;;;;;;;1.00;1.00;;;19.90;75.20;;;;;;5013119;28;43460;-73
2022/10/21 07:02:44;;;;;;;1.00;1.00;;;19.90;75.50;;;;;;5008301;28;43465;-72
2022/10/21 07:05:12;;;;;;;0.90;0.90;;;19.90;75.30;;;;;;5007754;28;43491;-71
2022/10/21 07:07:39;;;;;;;1.00;1.00;;;20.10;75.00;;;;;;5013748;28;43829;-72
2022/10/21 07:10:08;;;;;;;1.10;1.10;;;20.20;74.40;;;;;;5020452;28;43858;-72
2022/10/21 07:12:37;;;;;;;1.00;1.00;;;20.30;74.00;;;;;;5020652;28;43424;-72
2022/10/21 07:15:06;;;;;;;0.97;0.97;;;20.30;73.90;;;;;;5014919;28;43960;-73
2022/10/21 07:17:34;;;;;;;0.90;0.90;;;20.30;73.80;;;;;;5015746;28;45799;-72
2022/10/21 07:20:02;;;;;;;0.90;0.90;;;20.20;74.00;;;;;;5013588;28;43937;-71
2022/10/21 07:22:30;;;;;;;1.00;1.00;;;20.10;74.20;;;;;;5025838;28;43455;-73
2022/10/21 07:24:58;;;;;;;1.00;1.00;;;20.10;74.80;;;;;;5015935;28;43922;-72
2022/10/21 07:27:27;;;;;;;1.00;1.00;;;20.00;74.90;;;;;;5013707;28;43615;-71
2022/10/21 07:29:56;;;;;;;0.90;0.90;;;20.00;74.80;;;;;;5021003;28;43447;-73
2022/10/21 07:32:24;;;;;;;1.10;1.10;;;20.00;74.80;;;;;;5016700;28;44030;-71
2022/10/21 07:34:52;;;;;;;1.10;1.10;;;19.90;74.80;;;;;;5012233;28;43630;-72
2022/10/21 07:37:20;;;;;;;1.20;1.20;;;19.90;75.10;;;;;;5013657;28;45798;-71
2022/10/21 07:39:47;;;;;;;1.23;1.20;;;19.90;75.40;;;;;;5013868;28;43419;-71
2022/10/21 07:42:15;;;;;;;1.43;1.30;;;20.00;75.20;;;;;;5014506;28;43954;-71
2022/10/21 07:44:43;;;;;;;1.20;1.20;;;20.10;74.70;;;;;;5010855;28;43562;-73
2022/10/21 07:47:12;;;;;;;1.20;1.20;;;20.20;74.40;;;;;;5015055;28;43834;-71
2022/10/21 07:49:40;;;;;;;1.20;1.20;;;20.20;74.20;;;;;;5010327;28;43439;-71
2022/10/21 07:52:08;;;;;;;1.30;1.30;;;20.20;74.50;;;;;;5008811;28;43460;-73
2022/10/21 07:54:36;;;;;;;1.37;1.20;;;20.20;74.60;;;;;;5016779;28;44176;-72
2022/10/21 07:57:04;;;;;;;1.47;1.40;;;20.10;74.40;;;;;;5008964;28;43639;-71
2022/10/21 07:59:32;;;;;;;1.30;1.30;;;20.10;74.40;;;;;;5006410;28;46164;-70
2022/10/21 08:02:00;;;;;;;2.27;1.53;;;20.00;74.50;;;;;;5014158;28;43388;-72
2022/10/21 08:04:32;;;;;;;1.83;1.57;;;20.00;74.90;;;;;;5013609;28;43991;-70
2022/10/21 08:07:00;;;;;;;1.43;1.33;;;20.00;75.10;;;;;;5015059;28;44099;-70
2022/10/21 08:09:27;;;;;;;1.37;1.30;;;20.00;75.00;;;;;;5019329;28;44038;-70
2022/10/21 08:11:56;;;;;;;1.33;1.33;;;20.00;75.00;;;;;;5014287;28;43564;-71
2022/10/21 08:14:23;;;;;;;1.70;1.57;;;19.90;74.90;;;;;;5012616;28;43541;-71
2022/10/21 08:16:52;;;;;;;1.80;1.70;;;19.90;75.20;;;;;;5010637;28;44911;-70
2022/10/21 08:19:23;;;;;;;1.93;1.70;;;19.90;75.50;;;;;;5021229;28;43960;-72
2022/10/21 08:21:53;;;;;;;2.63;1.70;;;20.00;75.40;;;;;;5020411;28;43407;-73
2022/10/21 08:24:22;;;;;;;1.80;1.70;;;20.10;74.90;;;;;;5007923;28;43448;-73
2022/10/21 08:26:50;;;;;;;2.03;1.93;;;20.20;74.20;;;;;;5014071;28;43611;-71
2022/10/21 08:29:18;;;;;;;1.70;1.60;;;20.30;73.90;;;;;;5013479;28;43444;-72
2022/10/21 08:31:46;;;;;;;1.57;1.57;;;20.30;73.80;;;;;;5009811;28;44037;-71
2022/10/21 08:34:13;;;;;;;1.70;1.70;;;20.30;73.80;;;;;;5011994;28;43936;-72
2022/10/21 08:36:41;;;;;;;1.80;1.80;;;20.20;74.00;;;;;;5013691;28;43854;-72
2022/10/21 08:39:11;;;;;;;1.60;1.60;;;20.10;74.20;;;;;;5013232;28;44051;-72
2022/10/21 08:41:45;;;;;;;1.80;1.70;;;20.00;74.50;;;;;;5014534;28;43446;-71
2022/10/21 08:44:20;;;;;;;1.53;1.50;;;20.00;74.80;;;;;;5009852;28;43491;-71
2022/10/21 08:46:50;;;;;;;1.70;1.60;;;19.90;74.90;;;;;;5007544;28;43622;-71
2022/10/21 08:49:18;;;;;;;1.87;1.77;;;19.90;75.10;;;;;;5013981;28;43471;-71
2022/10/21 08:51:53;;;;;;;1.80;1.70;;;19.80;75.20;;;;;;5015394;28;43395;-72
2022/10/21 08:54:24;;;;;;;1.97;1.87;;;19.80;75.30;;;;;;5009052;28;43388;-72
2022/10/21 08:56:53;;;;;;;1.97;1.87;;;19.80;75.90;;;;;;5009751;28;43599;-70
2022/10/21 08:59:23;;;;;;;2.47;2.27;;;19.90;75.80;;;;;;5012044;28;43447;-74
2022/10/21 09:01:54;;;;;;;2.10;2.00;;;20.00;75.30;;;;;;5010994;28;43502;-71
2022/10/21 09:04:27;;;;;;;2.00;1.90;;;20.20;74.70;;;;;;5013950;28;43458;-71
2022/10/21 09:06:57;;;;;;;2.10;1.90;;;20.40;74.00;;;;;;5019804;28;45957;-71
2022/10/21 09:09:29;;;;;;;2.00;1.90;;;20.60;73.20;;;;;;5013683;28;43418;-71
2022/10/21 09:12:01;;;;;;;2.17;1.90;;;20.90;72.50;;;;;;5005543;28;43979;-69
2022/10/21 09:14:56;;;;;;;2.57;2.37;;;21.00;71.80;;;;;;5011687;28;43565;-71
2022/10/21 09:17:38;;;;;;;2.13;1.97;;;21.20;71.30;;;;;;5010308;28;43600;-73
2022/10/21 09:20:12;;;;;;;2.20;2.10;;;21.30;70.80;;;;;;5011135;28;43448;-72
2022/10/21 09:22:44;;;;;;;2.47;2.23;;;21.40;70.60;;;;;;5010304;28;43420;-71
2022/10/21 09:25:21;;;;;;;2.60;2.40;;;21.30;70.40;;;;;;5013958;28;44025;-72
2022/10/21 09:27:49;;;;;;;2.30;2.20;;;21.30;70.70;;;;;;5010563;28;43869;-71
2022/10/21 09:30:23;;;;;;;2.27;2.17;;;21.10;71.00;;;;;;5011151;28;43695;-71
2022/10/21 09:32:55;;;;;;;2.17;1.97;;;20.90;71.70;;;;;;5023004;28;43905;-73
2022/10/21 09:35:27;;;;;;;2.80;2.60;;;20.80;72.00;;;;;;5022030;28;43551;-72
2022/10/21 09:37:56;;;;;;;1.80;1.73;;;20.70;72.30;;;;;;5024247;28;43876;-71
2022/10/21 09:40:27;;;;;;;2.33;2.23;;;20.60;72.50;;;;;;5016362;28;44089;-71
2022/10/21 09:42:57;;;;;;;2.10;2.00;;;20.50;72.90;;;;;;5017793;28;43427;-72
2022/10/21 09:45:29;;;;;;;2.70;2.50;;;20.40;73.50;;;;;;5018676;28;43363;-71
2022/10/21 09:47:58;;;;;;;2.10;2.00;;;20.40;73.70;;;;;;5015262;28;43849;-71
2022/10/21 09:50:26;;;;;;;2.00;1.90;;;20.50;73.50;;;;;;5011673;28;43348;-73
2022/10/21 09:53:00;;;;;;;2.70;2.50;;;20.60;73.10;;;;;;5009723;28;43520;-72
2022/10/21 09:55:30;;;;;;;2.00;1.90;;;20.70;72.70;;;;;;5015391;28;43484;-72
2022/10/21 09:57:59;;;;;;;2.00;1.90;;;20.70;72.50;;;;;;5015355;28;43600;-71
2022/10/21 10:00:47;;;;;;;2.00;1.93;;;20.60;72.60;;;;;;5011028;28;44750;-71
2022/10/21 10:03:29;;;;;;;2.00;1.90;;;20.50;72.80;;;;;;5010391;28;43409;-71
2022/10/21 10:05:57;;;;;;;2.30;2.20;;;20.40;73.10;;;;;;5017939;28;43449;-72
2022/10/21 10:08:29;;;;;;;2.43;2.30;;;20.30;73.80;;;;;;5015787;28;43684;-72
2022/10/21 10:11:14;;;;;;;2.07;1.97;;;20.30;74.00;;;;;;5009230;28;45187;-71
2022/10/21 10:13:43;;;;;;;2.00;1.90;;;20.30;74.00;;;;;;5014104;28;43446;-71
2022/10/21 10:16:17;;;;;;;2.60;2.40;;;20.20;74.00;;;;;;5018679;28;43355;-72
2022/10/21 10:18:45;;;;;;;2.60;2.40;;;20.10;74.10;;;;;;5020003;28;43603;-70
2022/10/21 10:21:13;;;;;;;2.20;2.10;;;20.10;74.60;;;;;;5019123;28;43452;-72
2022/10/21 10:23:43;;;;;;;2.17;2.07;;;20.10;74.60;;;;;;5015503;28;43780;-72
2022/10/21 10:26:23;;;;;;;2.30;2.03;;;20.10;74.50;;;;;;5012761;28;44054;-72
2022/10/21 10:28:52;;;;;;;2.17;2.00;;;20.10;74.60;;;;;;5021799;28;45825;-72
2022/10/21 10:31:28;;;;;;;2.30;2.10;;;20.00;74.70;;;;;;5010670;28;43409;-71
2022/10/21 10:33:58;;;;;;;2.30;2.10;;;20.00;75.10;;;;;;5019942;28;43551;-71
2022/10/21 10:36:29;;;;;;;2.20;2.10;;;20.10;75.00;;;;;;5012382;28;43388;-72
2022/10/21 10:38:57;;;;;;;2.30;2.20;;;20.20;74.50;;;;;;5011543;28;43924;-72
2022/10/21 10:41:31;;;;;;;2.10;2.00;;;20.40;73.90;;;;;;5014798;28;43456;-71
2022/10/21 10:43:59;;;;;;;2.20;2.10;;;20.50;73.40;;;;;;5018991;28;43494;-71
2022/10/21 10:46:29;;;;;;;2.00;1.90;;;20.50;73.30;;;;;;5010361;28;43488;-71
2022/10/21 10:48:57;;;;;;;2.23;2.03;;;20.50;73.40;;;;;;5019325;28;43944;-72
2022/10/21 10:51:27;;;;;;;2.50;2.30;;;20.40;73.50;;;;;;5009658;28;43548;-71
2022/10/21 10:54:00;;;;;;;2.00;1.90;;;20.30;74.00;;;;;;5018184;28;43383;-71
2022/10/21 10:56:31;;;;;;;2.10;2.00;;;20.20;74.20;;;;;;5014987;28;43446;-72
2022/10/21 10:59:04;;;;;;;1.63;1.63;;;20.20;74.30;;;;;;5014699;28;43908;-72
2022/10/21 11:01:35;;;;;;;1.83;1.73;;;20.10;74.20;;;;;;5014683;28;43548;-71
2022/10/21 11:04:06;;;;;;;2.07;1.97;;;20.10;74.40;;;;;;5012524;28;43366;-70
2022/10/21 11:06:36;;;;;;;1.93;1.83;;;20.00;74.80;;;;;;5010252;28;43465;-71
2022/10/21 11:09:05;;;;;;;2.20;2.10;;;20.00;75.00;;;;;;5011275;28;43964;-71
2022/10/21 11:11:37;;;;;;;2.10;2.00;;;20.00;74.90;;;;;;5011696;28;43466;-72
2022/10/21 11:14:07;;;;;;;1.90;1.80;;;20.00;74.80;;;;;;5013607;28;43363;-71
2022/10/21 11:16:46;;;;;;;2.13;2.00;;;20.00;74.90;;;;;;5024394;28;43406;-71
2022/10/21 11:19:29;;;;;;;1.80;1.70;;;19.90;75.20;;;;;;5010467;28;43885;-70
2022/10/21 11:22:04;;;;;;;1.90;1.80;;;20.00;75.40;;;;;;5024154;28;43453;-72
2022/10/21 11:24:52;;;;;;;1.80;1.70;;;20.10;75.10;;;;;;5013357;28;43349;-71
2022/10/21 11:27:27;;;;;;;2.03;1.93;;;20.20;74.60;;;;;;5009717;28;43799;-73
2022/10/21 11:30:01;;;;;;;1.67;1.63;;;20.20;74.20;;;;;;5010258;28;43674;-71
2022/10/21 11:32:35;;;;;;;1.77;1.70;;;20.20;74.20;;;;;;5018385;28;43728;-71
2022/10/21 11:35:16;;;;;;;2.30;2.20;;;20.10;74.60;;;;;;5015309;28;43894;-73
2022/10/21 11:37:55;;;;;;;2.10;2.00;;;20.20;75.30;;;;;;5019039;28;43437;-71
2022/10/21 11:40:29;;;;;;;1.67;1.67;;;20.20;74.50;;;;;;5009400;28;43821;-71
2022/10/21 11:42:59;;;;;;;2.03;1.93;;;20.10;74.40;;;;;;5008657;28;43407;-70
2022/10/21 11:45:33;;;;;;;2.20;2.10;;;20.00;74.60;;;;;;5010353;28;43980;-71
2022/10/21 11:48:06;;;;;;;2.00;1.90;;;20.00;75.10;;;;;;5009167;28;43379;-71
2022/10/21 11:50:37;;;;;;;1.90;1.80;;;20.00;75.10;;;;;;5011078;28;45909;-71
2022/10/21 11:53:21;;;;;;;1.70;1.70;;;20.00;74.90;;;;;;5011251;28;43506;-71
2022/10/21 11:55:52;;;;;;;2.03;1.93;;;20.00;75.00;;;;;;5011549;28;43476;-71
2022/10/21 11:58:28;;;;;;;1.83;1.83;;;19.90;75.80;;;;;;5011237;28;43563;-71
2022/10/21 12:01:04;;;;;;;1.77;1.77;;;19.90;75.50;;;;;;5016296;28;46022;-71
2022/10/21 12:03:39;;;;;;;1.47;1.47;;;20.00;75.40;;;;;;5011143;28;43770;-71
2022/10/21 12:06:12;;;;;;;2.13;2.03;;;20.10;75.60;;;;;;5020501;28;43486;-71
2022/10/21 12:08:43;;;;;;;1.97;1.90;;;20.30;74.30;;;;;;5012412;28;44016;-73
2022/10/21 12:11:16;;;;;;;1.70;1.70;;;20.40;73.90;;;;;;5019388;28;43588;-71
2022/10/21 12:13:47;;;;;;;2.10;2.00;;;20.40;73.80;;;;;;5013996;28;43407;-70
2022/10/21 12:16:17;;;;;;;2.10;2.00;;;20.30;73.80;;;;;;5015699;28;43401;-72
2022/10/21 12:18:47;;;;;;;1.80;1.70;;;20.20;73.90;;;;;;5015903;28;43526;-71
2022/10/21 12:21:16;;;;;;;2.00;1.93;;;20.10;74.40;;;;;;5016870;28;44011;-71
2022/10/21 12:23:44;;;;;;;2.00;1.90;;;20.10;74.70;;;;;;5012297;28;43898;-71
2022/10/21 12:26:18;;;;;;;1.80;1.70;;;20.10;74.70;;;;;;5010660;28;43947;-72
2022/10/21 12:28:51;;;;;;;1.80;1.70;;;20.00;74.60;;;;;;5010927;28;43453;-72
2022/10/21 12:31:27;;;;;;;1.70;1.70;;;20.00;74.80;;;;;;5009106;28;43921;-72
2022/10/21 12:33:55;;;;;;;2.13;2.03;;;19.90;75.00;;;;;;5014720;28;43915;-72
2022/10/21 12:36:40;;;;;;;1.87;1.80;;;20.00;75.30;;;;;;5013402;28;43477;-72
2022/10/21 12:39:12;;;;;;;1.90;1.80;;;19.90;75.10;;;;;;5014277;28;43445;-72
2022/10/21 12:41:40;;;;;;;2.27;2.17;;;19.90;75.00;;;;;;5014360;28;45642;-71
2022/10/21 12:44:25;;;;;;;1.77;1.70;;;19.90;75.10;;;;;;5017749;28;43440;-70
2022/10/21 12:46:54;;;;;;;1.70;1.60;;;19.80;75.20;;;;;;5010106;28;43941;-71
2022/10/21 12:49:27;;;;;;;1.80;1.80;;;19.90;75.80;;;;;;5011087;28;43482;-72
2022/10/21 12:51:57;;;;;;;2.00;1.80;;;19.90;75.40;;;;;;5015727;28;44020;-72
2022/10/21 12:54:26;;;;;;;1.97;1.77;;;20.10;75.00;;;;;;5024229;28;44708;-71
2022/10/21 12:57:02;;;;;;;1.73;1.70;;;20.20;74.30;;;;;;5011525;28;43352;-71
2022/10/21 12:59:34;;;;;;;2.00;1.90;;;20.30;73.90;;;;;;5016217;28;43435;-71
2022/10/21 13:02:27;;;;;;;1.90;1.80;;;20.30;73.80;;;;;;5012549;28;43678;-72
2022/10/21 13:04:58;;;;;;;1.93;1.73;;;20.30;74.00;;;;;;4990741;28;44671;-71